Terminal Aerodrome Forecast
Issued by NWS

Home | Current Version | Previous Version | Text Only | Print | Product List | Glossary On
Versions: 1 2 3 4 5 6 7 8 9 10 11 12 13 14 15 16
000
FTUS43 KSGF 291100
TAFJLN
TAF
KJLN 291135Z 2912/3012 19005KT P6SM VCSH SCT050 BKN080
     FM291400 20011KT 6SM -SHRA SCT035 OVC070
      TEMPO 2915/2919 -TSRA BKN035CB
     FM292000 19010KT P6SM -SHRA VCTS BKN040CB OVC080
     FM301000 18008KT P6SM VCSH SCT030 BKN070=

USA.gov is the U.S. government's official web portal to all federal, state and local government web resources and services.